Time;durP1;ratioP1;P1;durP2;ratioP2;P2;SDS_P1;SDS_P2;PMS_P1;PMS_P2;Temp;Humidity;BMP_temperature;BMP_pressure;BME280_temperature;BME280_humidity;BME280_pressure;Samples;Min_cycle;Max_cycle;Signal;HPM_P1;HPM_P2
2022/06/27 00:00:28;;;;;;;5.78;4.30;;;;;;;;;;1724634;82;21000;-74
2022/06/27 00:02:55;;;;;;;5.50;4.78;;;;;;;;;;1741259;82;21071;-74
2022/06/27 00:05:22;;;;;;;5.58;5.00;;;;;;;;;;1725942;82;21152;-72
2022/06/27 00:07:48;;;;;;;4.80;4.28;;;;;;;;;;1742769;82;22193;-73
2022/06/27 00:10:14;;;;;;;4.90;4.40;;;;;;;;;;1718487;83;21045;-72
2022/06/27 00:12:40;;;;;;;4.97;4.37;;;;;;;;;;1722933;82;21102;-72
2022/06/27 00:15:07;;;;;;;6.10;4.28;;;;;;;;;;1727576;82;21080;-73
2022/06/27 00:17:33;;;;;;;5.92;4.45;;;;;;;;;;1740884;82;21560;-73
2022/06/27 00:20:00;;;;;;;5.80;4.80;;;;;;;;;;1733643;82;22122;-73
2022/06/27 00:22:26;;;;;;;6.70;4.40;;;;;;;;;;1729017;82;21566;-72
2022/06/27 00:24:53;;;;;;;5.22;4.65;;;;;;;;;;1736879;82;21066;-72
2022/06/27 00:27:20;;;;;;;4.58;4.08;;;;;;;;;;1723715;82;21024;-73
2022/06/27 00:29:46;;;;;;;5.35;4.00;;;;;;;;;;1720137;83;21524;-73
2022/06/27 00:32:12;;;;;;;5.67;4.30;;;;;;;;;;1749713;82;21055;-73
2022/06/27 00:34:39;;;;;;;5.72;4.58;;;;;;;;;;1753390;81;21087;-74
2022/06/27 00:37:05;;;;;;;6.58;4.35;;;;;;;;;;1749377;82;21054;-73
2022/06/27 00:39:31;;;;;;;5.25;4.30;;;;;;;;;;1727160;82;21013;-73
2022/06/27 00:41:58;;;;;;;5.22;4.30;;;;;;;;;;1752706;82;21520;-73
2022/06/27 00:44:32;;;;;;;5.28;4.78;;;;;;;;;;1723589;82;21028;-73
2022/06/27 00:46:59;;;;;;;5.95;4.33;;;;;;;;;;1722518;82;21495;-73
2022/06/27 00:49:25;;;;;;;4.78;4.37;;;;;;;;;;1751782;82;21099;-73
2022/06/27 00:51:51;;;;;;;7.35;4.67;;;;;;;;;;1740721;82;21094;-73
2022/06/27 00:54:17;;;;;;;5.15;4.30;;;;;;;;;;1747691;81;20988;-73
2022/06/27 00:56:44;;;;;;;6.00;5.25;;;;;;;;;;1720910;82;21079;-72
2022/06/27 00:59:10;;;;;;;5.85;5.25;;;;;;;;;;1723440;82;21092;-73
2022/06/27 01:04:25;;;;;;;5.72;4.80;;;;;;;;;;1709497;79;72797;-72
2022/06/27 01:06:52;;;;;;;4.80;4.05;;;;;;;;;;1684575;84;21065;-72
2022/06/27 01:09:20;;;;;;;5.50;4.37;;;;;;;;;;1702699;84;21099;-72
2022/06/27 01:11:46;;;;;;;5.00;4.50;;;;;;;;;;1683253;85;21060;-71
2022/06/27 01:14:12;;;;;;;5.75;5.12;;;;;;;;;;1684216;85;21240;-71
2022/06/27 01:16:39;;;;;;;5.40;4.87;;;;;;;;;;1683475;85;21084;-71
2022/06/27 01:19:09;;;;;;;5.87;4.95;;;;;;;;;;1714022;84;21075;-71
2022/06/27 01:21:38;;;;;;;7.30;4.80;;;;;;;;;;1667745;86;21096;-71
2022/06/27 01:24:04;;;;;;;6.78;4.78;;;;;;;;;;1668690;85;21047;-71
2022/06/27 01:26:30;;;;;;;6.45;4.65;;;;;;;;;;1692639;85;21075;-71
2022/06/27 01:28:56;;;;;;;5.78;5.12;;;;;;;;;;1679374;84;21072;-73
2022/06/27 01:31:24;;;;;;;5.40;4.75;;;;;;;;;;1692680;84;21095;-71
2022/06/27 01:33:50;;;;;;;6.58;4.90;;;;;;;;;;1692921;85;21063;-71
2022/06/27 01:39:01;;;;;;;6.62;5.10;;;;;;;;;;1686467;85;21039;-71
2022/06/27 01:41:28;;;;;;;5.42;4.53;;;;;;;;;;1692980;85;21039;-71
2022/06/27 01:43:54;;;;;;;5.17;4.15;;;;;;;;;;1692607;85;21047;-71
2022/06/27 01:46:20;;;;;;;6.50;5.00;;;;;;;;;;1692585;84;21043;-72
2022/06/27 01:48:46;;;;;;;6.22;4.47;;;;;;;;;;1684057;85;21075;-71
2022/06/27 01:51:13;;;;;;;4.95;4.45;;;;;;;;;;1692834;85;21601;-72
2022/06/27 01:53:39;;;;;;;5.47;4.35;;;;;;;;;;1692019;84;21095;-72
2022/06/27 01:56:05;;;;;;;7.30;5.30;;;;;;;;;;1692596;85;21055;-72
2022/06/27 01:58:33;;;;;;;5.78;4.72;;;;;;;;;;1692664;85;21479;-71
2022/06/27 02:01:00;;;;;;;6.45;4.42;;;;;;;;;;1692275;85;21067;-71
2022/06/27 02:03:26;;;;;;;4.90;4.40;;;;;;;;;;1699476;83;21618;-71
2022/06/27 02:07:26;;;;;;;5.22;4.62;;;;;;;;;;1783347;79;23660;-72
2022/06/27 02:09:53;;;;;;;5.70;4.60;;;;;;;;;;1715614;81;21040;-72
2022/06/27 02:12:23;;;;;;;5.75;5.25;;;;;;;;;;1758000;81;21048;-72
2022/06/27 02:14:52;;;;;;;5.90;5.05;;;;;;;;;;1730473;81;20997;-72
2022/06/27 02:17:21;;;;;;;5.75;4.72;;;;;;;;;;1753668;81;21033;-72
2022/06/27 02:19:48;;;;;;;5.25;4.55;;;;;;;;;;1746020;81;21091;-72
2022/06/27 02:22:15;;;;;;;6.30;4.95;;;;;;;;;;1758282;81;20997;-72
2022/06/27 02:24:42;;;;;;;5.92;4.55;;;;;;;;;;1758255;81;21013;-72
2022/06/27 02:27:09;;;;;;;7.47;5.40;;;;;;;;;;1754100;81;21200;-72
2022/06/27 02:29:36;;;;;;;5.22;4.72;;;;;;;;;;1747999;81;21444;-72
2022/06/27 02:32:02;;;;;;;5.78;5.17;;;;;;;;;;1748670;81;21091;-72
2022/06/27 02:34:28;;;;;;;6.37;4.65;;;;;;;;;;1757807;81;21079;-72
2022/06/27 02:36:56;;;;;;;7.62;5.30;;;;;;;;;;1758176;81;21028;-72
2022/06/27 02:39:24;;;;;;;6.33;4.22;;;;;;;;;;1753364;81;22381;-72
2022/06/27 02:41:56;;;;;;;5.28;4.28;;;;;;;;;;1734708;81;21087;-72
2022/06/27 02:44:26;;;;;;;5.35;4.58;;;;;;;;;;1727268;81;21064;-72
2022/06/27 02:46:52;;;;;;;5.65;4.67;;;;;;;;;;1750348;81;21064;-72
2022/06/27 02:49:19;;;;;;;6.10;4.80;;;;;;;;;;1740834;81;21107;-72
2022/06/27 02:51:53;;;;;;;6.95;5.25;;;;;;;;;;1728572;81;21048;-72
2022/06/27 02:54:21;;;;;;;6.35;5.22;;;;;;;;;;1757882;81;21048;-72
2022/06/27 02:56:59;;;;;;;6.85;4.92;;;;;;;;;;1757687;81;21076;-72
2022/06/27 02:59:27;;;;;;;5.30;4.60;;;;;;;;;;1757624;81;21075;-72
2022/06/27 03:01:53;;;;;;;5.45;4.70;;;;;;;;;;1751486;81;21068;-72
2022/06/27 03:04:21;;;;;;;5.35;4.55;;;;;;;;;;1713519;83;21610;-72
2022/06/27 03:06:49;;;;;;;5.60;4.47;;;;;;;;;;1720138;83;21089;-72
2022/06/27 03:09:17;;;;;;;6.25;4.65;;;;;;;;;;1715200;84;21573;-72
2022/06/27 03:11:45;;;;;;;6.53;4.83;;;;;;;;;;1714957;84;21034;-72
2022/06/27 03:14:12;;;;;;;6.10;5.30;;;;;;;;;;1714994;84;21042;-71
2022/06/27 03:16:39;;;;;;;5.60;4.25;;;;;;;;;;1715012;84;21065;-73
2022/06/27 03:19:05;;;;;;;5.47;4.30;;;;;;;;;;1714268;84;21103;-71
2022/06/27 03:21:33;;;;;;;7.30;4.62;;;;;;;;;;1715479;83;21134;-72
2022/06/27 03:24:01;;;;;;;7.80;4.45;;;;;;;;;;1713945;84;21104;-72
2022/06/27 03:26:29;;;;;;;5.55;4.60;;;;;;;;;;1714211;84;21557;-72
2022/06/27 03:28:55;;;;;;;5.15;4.37;;;;;;;;;;1714397;84;21028;-72
2022/06/27 03:31:21;;;;;;;5.95;4.45;;;;;;;;;;1714443;84;21057;-73
2022/06/27 03:33:50;;;;;;;5.50;4.17;;;;;;;;;;1714357;84;21042;-73
2022/06/27 03:36:21;;;;;;;4.80;4.33;;;;;;;;;;1714993;83;21017;-73
2022/06/27 03:38:48;;;;;;;6.87;5.00;;;;;;;;;;1702917;84;21045;-73
2022/06/27 03:41:14;;;;;;;5.78;4.42;;;;;;;;;;1714498;83;20970;-73
2022/06/27 03:43:40;;;;;;;4.83;3.65;;;;;;;;;;1714334;84;21045;-73
2022/06/27 03:46:06;;;;;;;4.65;4.17;;;;;;;;;;1714035;84;21071;-74
2022/06/27 03:51:35;;;;;;;4.20;3.80;;;;;;;;;;1709510;84;21085;-75
2022/06/27 03:54:01;;;;;;;4.85;4.35;;;;;;;;;;1714514;84;21109;-75
2022/06/27 03:56:27;;;;;;;5.58;4.37;;;;;;;;;;1714309;84;21536;-75
2022/06/27 03:58:53;;;;;;;5.85;4.50;;;;;;;;;;1714389;84;20991;-75
2022/06/27 04:01:20;;;;;;;4.40;4.00;;;;;;;;;;1712640;84;21021;-75
2022/06/27 04:03:46;;;;;;;4.70;3.85;;;;;;;;;;1714257;84;21065;-75
2022/06/27 04:06:14;;;;;;;6.15;4.10;;;;;;;;;;1714524;83;21559;-75
2022/06/27 04:08:40;;;;;;;6.28;4.20;;;;;;;;;;1725337;83;21049;-76
2022/06/27 04:11:07;;;;;;;5.90;4.50;;;;;;;;;;1724860;82;21029;-76
2022/06/27 04:13:35;;;;;;;4.92;4.30;;;;;;;;;;1724966;83;21023;-75
2022/06/27 04:16:04;;;;;;;4.50;3.90;;;;;;;;;;1707326;83;21061;-76
2022/06/27 04:18:49;;;;;;;4.30;3.85;;;;;;;;;;1725223;83;21025;-77
2022/06/27 04:21:35;;;;;;;4.35;3.67;;;;;;;;;;1716745;83;21497;-78
2022/06/27 04:24:15;;;;;;;5.05;3.65;;;;;;;;;;1663292;83;21002;-77
2022/06/27 04:26:43;;;;;;;4.72;3.87;;;;;;;;;;1725138;83;21105;-76
2022/06/27 04:29:09;;;;;;;4.33;3.92;;;;;;;;;;1723698;83;21024;-75
2022/06/27 04:31:35;;;;;;;4.40;4.00;;;;;;;;;;1723852;83;21016;-76
2022/06/27 04:34:02;;;;;;;5.03;3.77;;;;;;;;;;1725229;82;21064;-77
2022/06/27 04:36:30;;;;;;;4.97;4.03;;;;;;;;;;1725155;82;21072;-76
2022/06/27 04:38:58;;;;;;;4.47;3.80;;;;;;;;;;1725122;82;21540;-77
2022/06/27 04:41:35;;;;;;;4.30;3.90;;;;;;;;;;1683612;83;21022;-77
2022/06/27 04:44:01;;;;;;;6.90;4.17;;;;;;;;;;1708285;83;21569;-76
2022/06/27 04:46:28;;;;;;;4.90;3.42;;;;;;;;;;1724987;83;21060;-76
2022/06/27 04:49:08;;;;;;;5.83;5.15;;;;;;;;;;1725011;82;21186;-75
2022/06/27 04:51:35;;;;;;;6.42;4.90;;;;;;;;;;1725141;82;21063;-76
2022/06/27 04:54:01;;;;;;;5.62;4.37;;;;;;;;;;1725066;83;21028;-75
2022/06/27 04:56:30;;;;;;;4.72;3.90;;;;;;;;;;1722885;83;21435;-77
2022/06/27 04:58:57;;;;;;;5.83;4.25;;;;;;;;;;1705137;83;21018;-77
2022/06/27 05:01:24;;;;;;;4.72;3.72;;;;;;;;;;1723164;83;21011;-77
2022/06/27 05:03:54;;;;;;;6.80;4.05;;;;;;;;;;1724267;82;21089;-76
2022/06/27 05:06:22;;;;;;;7.85;4.17;;;;;;;;;;1719441;83;21636;-77
2022/06/27 05:08:48;;;;;;;5.72;3.50;;;;;;;;;;1712114;83;21661;-75
2022/06/27 05:11:14;;;;;;;5.87;3.80;;;;;;;;;;1713952;84;21059;-77
2022/06/27 05:13:40;;;;;;;7.12;4.28;;;;;;;;;;1713337;83;21112;-75
2022/06/27 05:16:10;;;;;;;6.12;4.62;;;;;;;;;;1713341;83;21097;-76
2022/06/27 05:18:37;;;;;;;7.22;4.03;;;;;;;;;;1714350;84;21046;-75
2022/06/27 05:21:03;;;;;;;7.17;4.45;;;;;;;;;;1713088;84;20986;-76
2022/06/27 05:23:29;;;;;;;6.45;4.10;;;;;;;;;;1713972;84;21076;-78
2022/06/27 05:25:55;;;;;;;4.78;4.05;;;;;;;;;;1712919;84;21561;-77
2022/06/27 05:28:23;;;;;;;5.97;3.85;;;;;;;;;;1714494;83;21065;-78
2022/06/27 05:30:49;;;;;;;6.85;4.62;;;;;;;;;;1714184;84;21033;-78
2022/06/27 05:33:15;;;;;;;8.83;4.55;;;;;;;;;;1712375;84;21510;-77
2022/06/27 05:35:42;;;;;;;17.77;5.05;;;;;;;;;;1713152;84;21527;-76
2022/06/27 05:38:08;;;;;;;9.40;4.83;;;;;;;;;;1712629;84;21646;-79
2022/06/27 05:40:34;;;;;;;11.08;5.12;;;;;;;;;;1713399;83;21033;-78
2022/06/27 05:43:02;;;;;;;4.95;4.12;;;;;;;;;;1714533;84;21037;-79
2022/06/27 05:45:28;;;;;;;5.08;4.17;;;;;;;;;;1714440;84;21053;-77
2022/06/27 05:48:03;;;;;;;5.67;4.08;;;;;;;;;;1711538;83;21020;-77
2022/06/27 05:50:31;;;;;;;5.67;4.08;;;;;;;;;;1708719;83;21513;-76
2022/06/27 05:52:59;;;;;;;5.50;4.28;;;;;;;;;;1713649;84;21007;-74
2022/06/27 05:55:28;;;;;;;4.90;4.40;;;;;;;;;;1713301;84;20993;-76
2022/06/27 05:57:57;;;;;;;5.05;3.45;;;;;;;;;;1713123;84;21072;-75
2022/06/27 06:00:24;;;;;;;4.83;4.00;;;;;;;;;;1711290;83;21030;-76
2022/06/27 06:02:52;;;;;;;6.22;4.15;;;;;;;;;;1713240;84;21178;-76
2022/06/27 06:05:20;;;;;;;5.35;3.98;;;;;;;;;;1704659;83;20993;-77
2022/06/27 06:07:46;;;;;;;5.10;4.37;;;;;;;;;;1727338;82;21048;-75
2022/06/27 06:10:13;;;;;;;5.90;4.58;;;;;;;;;;1721036;83;21052;-75
2022/06/27 06:12:41;;;;;;;5.92;5.33;;;;;;;;;;1719194;83;21048;-76
2022/06/27 06:15:08;;;;;;;7.22;4.62;;;;;;;;;;1722858;83;21038;-76
2022/06/27 06:17:36;;;;;;;6.83;4.70;;;;;;;;;;1719931;83;21047;-76
2022/06/27 06:20:04;;;;;;;9.03;5.30;;;;;;;;;;1724102;83;21009;-76
2022/06/27 06:22:31;;;;;;;7.00;4.78;;;;;;;;;;1718973;83;21070;-75
2022/06/27 06:24:57;;;;;;;6.92;4.55;;;;;;;;;;1724687;82;21011;-75
2022/06/27 06:27:23;;;;;;;5.20;4.47;;;;;;;;;;1726056;83;21558;-77
2022/06/27 06:29:49;;;;;;;7.33;4.90;;;;;;;;;;1724120;82;21076;-73
2022/06/27 06:32:17;;;;;;;7.12;5.00;;;;;;;;;;1707582;82;21485;-69
2022/06/27 06:34:43;;;;;;;7.70;5.20;;;;;;;;;;1721163;82;21024;-72
2022/06/27 06:37:10;;;;;;;15.48;5.78;;;;;;;;;;1721854;83;21111;-74
2022/06/27 06:39:37;;;;;;;13.65;5.53;;;;;;;;;;1724899;82;21035;-76
2022/06/27 06:42:04;;;;;;;13.68;6.53;;;;;;;;;;1724822;82;21074;-75
2022/06/27 06:44:32;;;;;;;6.70;4.78;;;;;;;;;;1722689;83;21064;-75
2022/06/27 06:47:03;;;;;;;6.05;4.85;;;;;;;;;;1723307;83;21010;-79
2022/06/27 06:49:31;;;;;;;5.37;4.12;;;;;;;;;;1723578;83;21564;-79
2022/06/27 06:51:59;;;;;;;8.00;4.83;;;;;;;;;;1724876;83;21127;-81
2022/06/27 06:54:26;;;;;;;4.92;4.28;;;;;;;;;;1724980;83;21004;-82
2022/06/27 06:56:52;;;;;;;5.85;4.20;;;;;;;;;;1723009;83;21040;-78
2022/06/27 06:59:19;;;;;;;7.33;4.40;;;;;;;;;;1724635;83;21088;-79
2022/06/27 07:01:46;;;;;;;6.10;4.10;;;;;;;;;;1723827;83;21049;-77
2022/06/27 07:04:14;;;;;;;5.97;4.20;;;;;;;;;;1724606;83;21093;-78
2022/06/27 07:06:40;;;;;;;5.15;4.03;;;;;;;;;;1723216;82;21041;-80
2022/06/27 07:09:06;;;;;;;6.22;4.15;;;;;;;;;;1714679;83;21084;-77
2022/06/27 07:11:35;;;;;;;6.58;4.17;;;;;;;;;;1715094;83;21537;-75
2022/06/27 07:14:00;;;;;;;4.85;4.12;;;;;;;;;;1715491;84;21070;-77
2022/06/27 07:16:27;;;;;;;4.92;3.95;;;;;;;;;;1711862;84;21586;-75
2022/06/27 07:18:55;;;;;;;5.28;4.37;;;;;;;;;;1713019;83;21009;-77
2022/06/27 07:21:22;;;;;;;7.10;4.20;;;;;;;;;;1714901;84;21533;-76
2022/06/27 07:23:48;;;;;;;4.55;4.10;;;;;;;;;;1711085;83;21001;-76
2022/06/27 07:26:16;;;;;;;5.70;4.10;;;;;;;;;;1711076;84;21029;-77
2022/06/27 07:28:42;;;;;;;6.97;3.62;;;;;;;;;;1713965;84;21015;-77
2022/06/27 07:31:09;;;;;;;9.15;4.70;;;;;;;;;;1714966;84;20986;-76
2022/06/27 07:33:39;;;;;;;6.97;4.20;;;;;;;;;;1705311;84;21081;-74
2022/06/27 07:36:06;;;;;;;4.50;4.05;;;;;;;;;;1714265;84;21384;-75
2022/06/27 07:38:38;;;;;;;4.67;3.65;;;;;;;;;;1714552;84;21072;-77
2022/06/27 07:41:00;;;;;;;4.58;3.80;;;;;;;;;;1712238;84;21030;-78
2022/06/27 07:43:27;;;;;;;5.58;3.60;;;;;;;;;;1713612;83;21577;-77
2022/06/27 07:45:56;;;;;;;5.60;3.67;;;;;;;;;;1711843;83;21108;-76
2022/06/27 07:48:22;;;;;;;10.20;4.55;;;;;;;;;;1713277;83;21043;-76
2022/06/27 07:50:48;;;;;;;8.65;4.37;;;;;;;;;;1694180;83;21301;-76
2022/06/27 07:53:15;;;;;;;7.33;4.45;;;;;;;;;;1707662;84;20975;-72
2022/06/27 07:55:49;;;;;;;4.30;3.90;;;;;;;;;;1711601;84;21524;-71
2022/06/27 07:58:19;;;;;;;5.45;4.10;;;;;;;;;;1710323;84;21061;-76
2022/06/27 08:00:47;;;;;;;8.30;4.20;;;;;;;;;;1713478;82;21069;-73
2022/06/27 08:06:00;;;;;;;5.28;4.40;;;;;;;;;;1709725;84;21086;-77
2022/06/27 08:08:27;;;;;;;6.60;4.33;;;;;;;;;;1718019;83;21097;-77
2022/06/27 08:10:53;;;;;;;4.60;4.20;;;;;;;;;;1724666;83;21035;-72
2022/06/27 08:13:20;;;;;;;8.43;4.78;;;;;;;;;;1725194;83;21054;-74
2022/06/27 08:15:47;;;;;;;8.63;4.70;;;;;;;;;;1722991;83;21045;-72
2022/06/27 08:18:15;;;;;;;4.80;4.30;;;;;;;;;;1724396;83;20946;-76
2022/06/27 08:20:42;;;;;;;6.72;4.45;;;;;;;;;;1723584;83;21090;-76
2022/06/27 08:23:08;;;;;;;6.22;4.15;;;;;;;;;;1720560;83;21144;-74
2022/06/27 08:25:35;;;;;;;6.40;4.30;;;;;;;;;;1721703;83;21027;-75
2022/06/27 08:28:01;;;;;;;5.45;3.90;;;;;;;;;;1724142;83;21059;-73
2022/06/27 08:30:28;;;;;;;8.68;4.65;;;;;;;;;;1725275;83;21066;-74
2022/06/27 08:32:55;;;;;;;5.65;4.12;;;;;;;;;;1693564;83;21013;-77
2022/06/27 08:35:22;;;;;;;5.78;4.62;;;;;;;;;;1739479;82;21493;-76
2022/06/27 08:37:50;;;;;;;5.62;4.67;;;;;;;;;;1724201;83;21001;-74
2022/06/27 08:40:17;;;;;;;5.15;4.25;;;;;;;;;;1724374;82;21058;-76
2022/06/27 08:42:47;;;;;;;7.05;4.42;;;;;;;;;;1724872;83;21127;-73
2022/06/27 08:45:14;;;;;;;6.67;4.25;;;;;;;;;;1721141;83;21060;-72
2022/06/27 08:47:41;;;;;;;7.40;3.90;;;;;;;;;;1724133;83;21583;-74
2022/06/27 08:50:08;;;;;;;4.67;4.28;;;;;;;;;;1725372;82;21049;-72
2022/06/27 08:52:39;;;;;;;5.87;4.28;;;;;;;;;;1723476;83;21029;-74
2022/06/27 08:55:03;;;;;;;8.03;4.12;;;;;;;;;;1723092;83;21037;-73
2022/06/27 08:57:30;;;;;;;5.50;5.00;;;;;;;;;;1721779;83;21052;-72
2022/06/27 08:59:58;;;;;;;5.65;4.58;;;;;;;;;;1718091;82;21022;-74
2022/06/27 09:02:26;;;;;;;5.20;3.90;;;;;;;;;;1722833;83;21092;-76
2022/06/27 09:04:57;;;;;;;9.28;4.15;;;;;;;;;;1724035;83;21025;-74
2022/06/27 09:07:21;;;;;;;4.30;3.90;;;;;;;;;;1709659;83;21528;-74
2022/06/27 09:09:47;;;;;;;4.42;4.03;;;;;;;;;;1711918;83;21529;-72
2022/06/27 09:12:17;;;;;;;6.20;3.85;;;;;;;;;;1714215;84;21081;-78
2022/06/27 09:14:44;;;;;;;4.97;4.00;;;;;;;;;;1714500;82;20958;-77
2022/06/27 09:17:15;;;;;;;3.90;3.50;;;;;;;;;;1712227;84;21005;-76
2022/06/27 09:19:52;;;;;;;5.20;3.65;;;;;;;;;;1708663;84;21053;-74
2022/06/27 09:22:19;;;;;;;4.22;3.80;;;;;;;;;;1712851;84;21037;-73
2022/06/27 09:25:05;;;;;;;4.40;3.52;;;;;;;;;;1694340;84;21555;-75
2022/06/27 09:27:35;;;;;;;4.45;3.45;;;;;;;;;;1691401;84;21188;-77
2022/06/27 09:30:07;;;;;;;7.25;3.62;;;;;;;;;;1707636;84;21026;-74
2022/06/27 09:32:33;;;;;;;5.62;3.47;;;;;;;;;;1692303;83;21077;-74
2022/06/27 09:35:00;;;;;;;6.83;3.90;;;;;;;;;;1713865;84;21026;-75
2022/06/27 09:37:26;;;;;;;3.85;3.45;;;;;;;;;;1704351;84;21561;-76
2022/06/27 09:39:52;;;;;;;4.92;3.25;;;;;;;;;;1712640;83;20986;-76
2022/06/27 09:42:20;;;;;;;4.20;3.70;;;;;;;;;;1702604;82;21039;-75
2022/06/27 09:44:47;;;;;;;4.25;3.50;;;;;;;;;;1692795;84;21365;-73
2022/06/27 09:47:17;;;;;;;4.47;3.67;;;;;;;;;;1705956;84;20990;-77
2022/06/27 09:49:46;;;;;;;8.23;4.10;;;;;;;;;;1712716;82;21445;-74
2022/06/27 09:52:14;;;;;;;5.30;4.03;;;;;;;;;;1713041;83;21060;-75
2022/06/27 09:54:42;;;;;;;4.30;3.90;;;;;;;;;;1702659;82;21056;-76
2022/06/27 09:57:08;;;;;;;4.42;3.15;;;;;;;;;;1680325;85;20978;-74
2022/06/27 09:59:35;;;;;;;5.60;3.60;;;;;;;;;;1713119;84;21018;-76
2022/06/27 10:02:01;;;;;;;8.23;4.28;;;;;;;;;;1733800;82;21065;-75
2022/06/27 10:04:28;;;;;;;4.15;3.40;;;;;;;;;;1720226;82;21041;-73
2022/06/27 10:06:55;;;;;;;4.85;3.55;;;;;;;;;;1705195;84;21018;-76
2022/06/27 10:09:24;;;;;;;3.87;3.47;;;;;;;;;;1712809;83;21038;-75
2022/06/27 10:11:51;;;;;;;4.70;3.62;;;;;;;;;;1714100;84;21105;-74
2022/06/27 10:14:25;;;;;;;75.00;50.17;;;;;;;;;;1712219;84;21119;-72
2022/06/27 10:16:53;;;;;;;16.40;12.55;;;;;;;;;;1713372;84;20998;-73
2022/06/27 10:19:20;;;;;;;6.53;5.83;;;;;;;;;;1709971;84;21065;-75
2022/06/27 10:21:47;;;;;;;6.28;3.95;;;;;;;;;;1695177;84;21061;-72
2022/06/27 10:24:21;;;;;;;5.05;3.87;;;;;;;;;;1709261;84;21163;-72
2022/06/27 10:26:48;;;;;;;4.00;3.60;;;;;;;;;;1711149;84;21104;-71
2022/06/27 10:29:29;;;;;;;7.00;3.67;;;;;;;;;;1710240;84;21548;-72
2022/06/27 10:31:55;;;;;;;10.20;4.10;;;;;;;;;;1711237;84;21037;-71
2022/06/27 10:34:23;;;;;;;4.45;3.58;;;;;;;;;;1713821;84;21221;-72
2022/06/27 10:36:51;;;;;;;5.87;3.67;;;;;;;;;;1712233;84;21062;-71
2022/06/27 10:39:20;;;;;;;4.42;3.90;;;;;;;;;;1710754;84;21046;-74
2022/06/27 10:41:46;;;;;;;5.05;3.47;;;;;;;;;;1709860;83;21037;-73
2022/06/27 10:44:26;;;;;;;10.32;3.77;;;;;;;;;;1712090;84;21022;-72
2022/06/27 10:46:53;;;;;;;4.47;3.72;;;;;;;;;;1695447;84;21055;-71
2022/06/27 10:49:19;;;;;;;4.33;3.72;;;;;;;;;;1699521;84;21029;-72
2022/06/27 10:51:46;;;;;;;4.42;3.62;;;;;;;;;;1680381;85;21458;-74
2022/06/27 10:54:12;;;;;;;7.97;3.47;;;;;;;;;;1654676;86;21066;-74
2022/06/27 10:56:44;;;;;;;5.10;3.35;;;;;;;;;;1712182;84;21013;-74
2022/06/27 10:59:18;;;;;;;6.28;3.55;;;;;;;;;;1699958;84;21058;-76
2022/06/27 11:01:57;;;;;;;4.05;3.40;;;;;;;;;;1714229;83;21117;-75
2022/06/27 11:04:28;;;;;;;9.25;3.60;;;;;;;;;;1708442;84;21042;-72
2022/06/27 11:06:57;;;;;;;22.37;20.17;;;;;;;;;;1713237;84;20994;-72
2022/06/27 11:09:40;;;;;;;17.32;15.58;;;;;;;;;;1722504;83;21532;-72
2022/06/27 11:12:07;;;;;;;5.50;4.95;;;;;;;;;;1722903;82;21021;-73
2022/06/27 11:14:50;;;;;;;6.03;3.60;;;;;;;;;;1722922;83;21029;-72
2022/06/27 11:17:30;;;;;;;6.95;3.22;;;;;;;;;;1717720;83;22128;-75
2022/06/27 11:20:13;;;;;;;5.25;3.10;;;;;;;;;;1719318;83;21548;-79
2022/06/27 11:22:40;;;;;;;3.87;2.90;;;;;;;;;;1718940;83;21009;-77
2022/06/27 11:25:06;;;;;;;3.47;2.80;;;;;;;;;;1723580;83;21056;-77
2022/06/27 11:27:49;;;;;;;5.90;3.37;;;;;;;;;;1724300;83;22117;-78
2022/06/27 11:33:17;;;;;;;4.03;3.22;;;;;;;;;;1718963;83;21029;-82
2022/06/27 11:35:45;;;;;;;3.47;2.85;;;;;;;;;;1724964;82;21014;-81
2022/06/27 11:38:11;;;;;;;5.92;3.00;;;;;;;;;;1722514;83;21595;-82
2022/06/27 11:40:37;;;;;;;4.65;3.10;;;;;;;;;;1725201;82;21072;-81
2022/06/27 11:43:04;;;;;;;3.67;3.05;;;;;;;;;;1722724;83;21021;-79
2022/06/27 11:45:40;;;;;;;4.53;2.85;;;;;;;;;;1719362;83;21594;-79
2022/06/27 11:48:11;;;;;;;4.15;3.30;;;;;;;;;;1724697;82;21112;-81
2022/06/27 11:50:37;;;;;;;3.33;3.02;;;;;;;;;;1725627;83;21089;-82
2022/06/27 11:53:03;;;;;;;4.97;3.00;;;;;;;;;;1723666;83;21029;-85
2022/06/27 11:55:31;;;;;;;3.60;2.92;;;;;;;;;;1722430;83;21057;-80
2022/06/27 11:57:58;;;;;;;3.72;2.85;;;;;;;;;;1724335;82;21005;-80
2022/06/27 12:00:32;;;;;;;7.85;4.70;;;;;;;;;;1724246;83;21030;-81
2022/06/27 12:03:00;;;;;;;5.37;3.87;;;;;;;;;;1718585;83;21130;-79
2022/06/27 12:05:26;;;;;;;4.40;3.58;;;;;;;;;;1724429;83;21053;-82
2022/06/27 12:07:52;;;;;;;6.65;3.30;;;;;;;;;;1725223;83;21033;-80
2022/06/27 12:10:35;;;;;;;9.35;3.35;;;;;;;;;;1724375;82;21651;-84
2022/06/27 12:13:03;;;;;;;3.95;3.20;;;;;;;;;;1723088;83;21013;-80
2022/06/27 12:15:29;;;;;;;4.28;3.33;;;;;;;;;;1724399;83;21068;-83
2022/06/27 12:17:56;;;;;;;5.62;3.50;;;;;;;;;;1699609;83;21045;-79
2022/06/27 12:20:24;;;;;;;9.88;3.90;;;;;;;;;;1719215;83;21064;-81
2022/06/27 12:22:50;;;;;;;7.25;3.40;;;;;;;;;;1723978;82;21097;-76
2022/06/27 12:25:17;;;;;;;3.92;3.50;;;;;;;;;;1713785;82;21038;-77
2022/06/27 12:27:44;;;;;;;5.30;3.33;;;;;;;;;;1721588;83;21056;-76
2022/06/27 12:30:11;;;;;;;7.33;3.70;;;;;;;;;;1705658;83;21145;-76
2022/06/27 12:32:37;;;;;;;4.10;3.45;;;;;;;;;;1711930;83;21025;-76
2022/06/27 12:35:03;;;;;;;3.92;3.27;;;;;;;;;;1723981;83;21040;-75
2022/06/27 12:37:29;;;;;;;4.35;3.02;;;;;;;;;;1721429;83;21107;-79
2022/06/27 12:39:55;;;;;;;3.90;3.42;;;;;;;;;;1721358;83;21033;-75
2022/06/27 12:42:21;;;;;;;5.72;3.77;;;;;;;;;;1722658;83;20999;-75
2022/06/27 12:44:47;;;;;;;7.60;3.77;;;;;;;;;;1724990;83;21093;-76
2022/06/27 12:47:13;;;;;;;4.65;3.25;;;;;;;;;;1725000;82;21046;-75
2022/06/27 12:49:39;;;;;;;4.42;3.70;;;;;;;;;;1723760;83;21072;-76
2022/06/27 12:52:06;;;;;;;8.38;3.70;;;;;;;;;;1722798;83;21001;-75
2022/06/27 12:54:32;;;;;;;5.55;3.67;;;;;;;;;;1722507;83;21063;-76
2022/06/27 12:56:59;;;;;;;8.73;3.80;;;;;;;;;;1724853;83;21547;-76
2022/06/27 12:59:25;;;;;;;8.53;3.60;;;;;;;;;;1723142;83;21029;-75
2022/06/27 13:01:52;;;;;;;5.87;3.25;;;;;;;;;;1725029;83;21057;-77
2022/06/27 13:04:18;;;;;;;4.55;3.37;;;;;;;;;;1723247;83;20975;-76
2022/06/27 13:06:45;;;;;;;11.43;3.77;;;;;;;;;;1723853;83;21048;-76
2022/06/27 13:09:11;;;;;;;4.83;3.47;;;;;;;;;;1704479;83;21156;-76
2022/06/27 13:11:38;;;;;;;5.70;3.20;;;;;;;;;;1686177;84;21045;-76
2022/06/27 13:14:05;;;;;;;5.65;3.40;;;;;;;;;;1681939;85;21021;-75
2022/06/27 13:16:31;;;;;;;8.78;3.45;;;;;;;;;;1682055;85;21046;-77
2022/06/27 13:18:57;;;;;;;10.95;3.47;;;;;;;;;;1685040;85;21599;-71
2022/06/27 13:21:24;;;;;;;31.87;28.62;;;;;;;;;;1684342;85;22396;-73
2022/06/27 13:23:51;;;;;;;50.12;45.00;;;;;;;;;;1686328;85;21053;-72
2022/06/27 13:26:17;;;;;;;6.15;5.55;;;;;;;;;;1684384;85;21080;-75
2022/06/27 13:28:44;;;;;;;4.47;4.08;;;;;;;;;;1677974;85;21080;-75
2022/06/27 13:31:11;;;;;;;4.95;3.55;;;;;;;;;;1681496;85;21543;-77
2022/06/27 13:33:37;;;;;;;5.80;3.42;;;;;;;;;;1680679;85;21064;-75
2022/06/27 13:36:03;;;;;;;9.18;3.60;;;;;;;;;;1680805;85;21072;-74
2022/06/27 13:38:29;;;;;;;3.58;3.27;;;;;;;;;;1674061;85;21550;-77
2022/06/27 13:40:55;;;;;;;4.17;3.22;;;;;;;;;;1682788;85;20989;-74
2022/06/27 13:43:21;;;;;;;4.83;3.50;;;;;;;;;;1684275;85;21085;-74
2022/06/27 13:45:47;;;;;;;4.75;3.30;;;;;;;;;;1681316;85;21072;-74
2022/06/27 13:48:14;;;;;;;4.00;3.15;;;;;;;;;;1671948;85;21033;-72
2022/06/27 13:50:40;;;;;;;4.10;3.20;;;;;;;;;;1680792;85;20989;-75
2022/06/27 13:53:06;;;;;;;6.05;3.70;;;;;;;;;;1683833;84;21001;-75
2022/06/27 13:55:35;;;;;;;4.00;3.60;;;;;;;;;;1685279;83;21043;-73
2022/06/27 13:58:02;;;;;;;4.08;3.40;;;;;;;;;;1682635;85;21113;-74
2022/06/27 14:00:29;;;;;;;22.07;19.77;;;;;;;;;;1672891;85;21072;-74
2022/06/27 14:02:55;;;;;;;12.05;10.68;;;;;;;;;;1678877;83;21104;-75
2022/06/27 14:05:21;;;;;;;8.75;7.58;;;;;;;;;;1679195;85;20978;-77
2022/06/27 14:07:49;;;;;;;4.67;4.20;;;;;;;;;;1682779;85;21063;-76
2022/06/27 14:10:16;;;;;;;4.50;3.80;;;;;;;;;;1705599;83;21061;-75
2022/06/27 14:12:43;;;;;;;4.55;3.50;;;;;;;;;;1710499;84;21057;-76
2022/06/27 14:15:09;;;;;;;5.80;5.20;;;;;;;;;;1708508;84;21021;-74
2022/06/27 14:17:35;;;;;;;6.20;4.15;;;;;;;;;;1705498;84;21014;-74
2022/06/27 14:20:01;;;;;;;4.72;3.70;;;;;;;;;;1662779;85;21059;-74
2022/06/27 14:24:52;;;;;;;5.37;3.50;;;;;;;;;;1810634;79;23602;-83
2022/06/27 14:27:18;;;;;;;6.15;4.03;;;;;;;;;;1787350;80;21035;-76
2022/06/27 14:29:45;;;;;;;4.55;3.98;;;;;;;;;;1781892;79;21025;-75
2022/06/27 14:32:11;;;;;;;6.42;4.00;;;;;;;;;;1774925;80;21004;-84
2022/06/27 14:34:37;;;;;;;6.60;4.20;;;;;;;;;;1774470;80;20962;-77
2022/06/27 14:37:03;;;;;;;4.25;3.85;;;;;;;;;;1771370;78;21541;-81
2022/06/27 14:39:30;;;;;;;6.65;3.95;;;;;;;;;;1769080;80;21077;-82
2022/06/27 14:41:56;;;;;;;4.50;4.10;;;;;;;;;;1785905;80;21019;-78
2022/06/27 14:44:21;;;;;;;4.67;4.15;;;;;;;;;;1780515;80;21392;-76
2022/06/27 14:46:48;;;;;;;4.97;4.40;;;;;;;;;;1785851;80;21012;-77
2022/06/27 14:49:15;;;;;;;6.12;4.28;;;;;;;;;;1778959;80;21556;-76
2022/06/27 14:51:41;;;;;;;8.03;4.25;;;;;;;;;;1778620;79;21626;-75
2022/06/27 14:54:09;;;;;;;4.70;4.08;;;;;;;;;;1786786;78;21004;-80
2022/06/27 14:56:35;;;;;;;4.65;4.20;;;;;;;;;;1774081;80;21510;-84
2022/06/27 14:59:03;;;;;;;8.40;7.55;;;;;;;;;;1778115;80;21033;-77
2022/06/27 15:01:29;;;;;;;6.65;5.55;;;;;;;;;;1772176;79;21624;-79
2022/06/27 15:03:55;;;;;;;7.97;4.97;;;;;;;;;;1762239;80;21089;-79